sensor_id;sensor_type;location;lat;lon;timestamp;temperature;humidity
4643;DHT22;2334;48.710;9.622;2022-09-02T00:00:50;15.10;99.90
4643;DHT22;2334;48.710;9.622;2022-09-02T00:03:19;15.10;99.90
4643;DHT22;2334;48.710;9.622;2022-09-02T00:05:46;15.10;99.90
4643;DHT22;2334;48.710;9.622;2022-09-02T00:08:13;15.00;99.90
4643;DHT22;2334;48.710;9.622;2022-09-02T00:10:44;15.00;99.90
4643;DHT22;2334;48.710;9.622;2022-09-02T00:13:13;15.00;99.90
4643;DHT22;2334;48.710;9.622;2022-09-02T00:15:41;15.00;99.90
4643;DHT22;2334;48.710;9.622;2022-09-02T00:18:08;15.00;99.90
4643;DHT22;2334;48.710;9.622;2022-09-02T00:20:42;14.90;99.90
4643;DHT22;2334;48.710;9.622;2022-09-02T00:23:10;14.90;99.90
4643;DHT22;2334;48.710;9.622;2022-09-02T00:25:38;14.80;99.90
4643;DHT22;2334;48.710;9.622;2022-09-02T00:28:06;14.70;99.90
4643;DHT22;2334;48.710;9.622;2022-09-02T00:30:34;14.60;99.90
4643;DHT22;2334;48.710;9.622;2022-09-02T00:33:01;14.60;99.90
4643;DHT22;2334;48.710;9.622;2022-09-02T00:35:29;14.50;99.90
4643;DHT22;2334;48.710;9.622;2022-09-02T00:37:58;14.40;99.90
4643;DHT22;2334;48.710;9.622;2022-09-02T00:40:26;14.40;99.90
4643;DHT22;2334;48.710;9.622;2022-09-02T00:42:53;14.30;99.90
4643;DHT22;2334;48.710;9.622;2022-09-02T00:45:21;14.30;99.90
4643;DHT22;2334;48.710;9.622;2022-09-02T00:47:48;14.20;99.90
4643;DHT22;2334;48.710;9.622;2022-09-02T00:50:19;14.10;99.90
4643;DHT22;2334;48.710;9.622;2022-09-02T00:52:51;14.10;99.90
4643;DHT22;2334;48.710;9.622;2022-09-02T00:55:23;14.00;99.90
4643;DHT22;2334;48.710;9.622;2022-09-02T00:57:52;13.90;99.90
4643;DHT22;2334;48.710;9.622;2022-09-02T01:00:23;13.90;99.90
4643;DHT22;2334;48.710;9.622;2022-09-02T01:02:53;13.90;99.90
4643;DHT22;2334;48.710;9.622;2022-09-02T01:05:22;13.90;99.90
4643;DHT22;2334;48.710;9.622;2022-09-02T01:07:50;13.90;99.90
4643;DHT22;2334;48.710;9.622;2022-09-02T01:10:27;13.90;99.90
4643;DHT22;2334;48.710;9.622;2022-09-02T01:12:55;13.90;99.90
4643;DHT22;2334;48.710;9.622;2022-09-02T01:15:23;13.90;99.90
4643;DHT22;2334;48.710;9.622;2022-09-02T01:17:51;13.90;99.90
4643;DHT22;2334;48.710;9.622;2022-09-02T01:20:20;13.90;99.90
4643;DHT22;2334;48.710;9.622;2022-09-02T01:22:49;13.90;99.90
4643;DHT22;2334;48.710;9.622;2022-09-02T01:25:21;13.90;99.90
4643;DHT22;2334;48.710;9.622;2022-09-02T01:27:49;13.90;99.90
4643;DHT22;2334;48.710;9.622;2022-09-02T01:30:19;14.00;99.90
4643;DHT22;2334;48.710;9.622;2022-09-02T01:32:47;13.90;99.90
4643;DHT22;2334;48.710;9.622;2022-09-02T01:35:14;13.90;99.90
4643;DHT22;2334;48.710;9.622;2022-09-02T01:37:42;13.90;99.90
4643;DHT22;2334;48.710;9.622;2022-09-02T01:40:14;13.90;99.90
4643;DHT22;2334;48.710;9.622;2022-09-02T01:42:41;13.90;99.90
4643;DHT22;2334;48.710;9.622;2022-09-02T01:45:09;13.90;99.90
4643;DHT22;2334;48.710;9.622;2022-09-02T01:47:37;13.80;99.90
4643;DHT22;2334;48.710;9.622;2022-09-02T01:50:05;13.80;99.90
4643;DHT22;2334;48.710;9.622;2022-09-02T01:52:33;13.70;99.90
4643;DHT22;2334;48.710;9.622;2022-09-02T01:55:00;13.70;99.90
4643;DHT22;2334;48.710;9.622;2022-09-02T01:57:29;13.60;99.90
4643;DHT22;2334;48.710;9.622;2022-09-02T01:59:57;13.60;99.90
4643;DHT22;2334;48.710;9.622;2022-09-02T02:02:26;13.50;99.90
4643;DHT22;2334;48.710;9.622;2022-09-02T02:04:53;13.50;99.90
4643;DHT22;2334;48.710;9.622;2022-09-02T02:07:20;13.50;99.90
4643;DHT22;2334;48.710;9.622;2022-09-02T02:09:48;13.50;99.90
4643;DHT22;2334;48.710;9.622;2022-09-02T02:12:16;13.40;99.90
4643;DHT22;2334;48.710;9.622;2022-09-02T02:14:44;13.40;99.90
4643;DHT22;2334;48.710;9.622;2022-09-02T02:17:11;13.40;99.90
4643;DHT22;2334;48.710;9.622;2022-09-02T02:19:39;13.40;99.90
4643;DHT22;2334;48.710;9.622;2022-09-02T02:22:06;13.40;99.90
4643;DHT22;2334;48.710;9.622;2022-09-02T02:24:33;13.40;99.90
4643;DHT22;2334;48.710;9.622;2022-09-02T02:27:00;13.40;99.90
4643;DHT22;2334;48.710;9.622;2022-09-02T02:29:27;13.40;99.90
4643;DHT22;2334;48.710;9.622;2022-09-02T02:31:55;13.30;99.90
4643;DHT22;2334;48.710;9.622;2022-09-02T02:34:22;13.30;99.90
4643;DHT22;2334;48.710;9.622;2022-09-02T02:36:49;13.20;99.90
4643;DHT22;2334;48.710;9.622;2022-09-02T02:39:16;13.10;99.90
4643;DHT22;2334;48.710;9.622;2022-09-02T02:41:43;13.10;99.90
4643;DHT22;2334;48.710;9.622;2022-09-02T02:44:11;13.10;99.90
4643;DHT22;2334;48.710;9.622;2022-09-02T02:46:38;13.10;99.90
4643;DHT22;2334;48.710;9.622;2022-09-02T02:49:06;13.00;99.90
4643;DHT22;2334;48.710;9.622;2022-09-02T02:51:33;13.00;99.90
4643;DHT22;2334;48.710;9.622;2022-09-02T02:54:01;12.90;99.90
4643;DHT22;2334;48.710;9.622;2022-09-02T02:56:29;12.90;99.90
4643;DHT22;2334;48.710;9.622;2022-09-02T02:58:57;12.80;99.90
4643;DHT22;2334;48.710;9.622;2022-09-02T03:01:28;12.70;99.90
4643;DHT22;2334;48.710;9.622;2022-09-02T03:03:55;12.70;99.90
4643;DHT22;2334;48.710;9.622;2022-09-02T03:06:24;12.70;99.90
4643;DHT22;2334;48.710;9.622;2022-09-02T03:08:51;12.60;99.90
4643;DHT22;2334;48.710;9.622;2022-09-02T03:11:19;12.50;99.90
4643;DHT22;2334;48.710;9.622;2022-09-02T03:13:47;12.50;99.90
4643;DHT22;2334;48.710;9.622;2022-09-02T03:16:14;12.50;99.90
4643;DHT22;2334;48.710;9.622;2022-09-02T03:18:44;12.40;99.90
4643;DHT22;2334;48.710;9.622;2022-09-02T03:21:11;12.50;99.90
4643;DHT22;2334;48.710;9.622;2022-09-02T03:23:40;12.40;99.90
4643;DHT22;2334;48.710;9.622;2022-09-02T03:26:11;12.50;99.90
4643;DHT22;2334;48.710;9.622;2022-09-02T03:28:39;12.40;99.90
4643;DHT22;2334;48.710;9.622;2022-09-02T03:31:07;12.40;99.90
4643;DHT22;2334;48.710;9.622;2022-09-02T03:33:38;12.40;99.90
4643;DHT22;2334;48.710;9.622;2022-09-02T03:36:06;12.40;99.90
4643;DHT22;2334;48.710;9.622;2022-09-02T03:38:34;12.40;99.90
4643;DHT22;2334;48.710;9.622;2022-09-02T03:41:02;12.40;99.90
4643;DHT22;2334;48.710;9.622;2022-09-02T03:43:29;12.40;99.90
4643;DHT22;2334;48.710;9.622;2022-09-02T03:45:56;12.40;99.90
4643;DHT22;2334;48.710;9.622;2022-09-02T03:48:23;12.30;99.90
4643;DHT22;2334;48.710;9.622;2022-09-02T03:50:50;12.20;99.90
4643;DHT22;2334;48.710;9.622;2022-09-02T03:53:17;12.20;99.90
4643;DHT22;2334;48.710;9.622;2022-09-02T03:55:44;12.20;99.90
4643;DHT22;2334;48.710;9.622;2022-09-02T03:58:12;12.20;99.90
4643;DHT22;2334;48.710;9.622;2022-09-02T04:00:39;12.20;99.90
4643;DHT22;2334;48.710;9.622;2022-09-02T04:03:06;12.20;99.90
4643;DHT22;2334;48.710;9.622;2022-09-02T04:05:33;12.10;99.90
4643;DHT22;2334;48.710;9.622;2022-09-02T04:08:00;12.10;99.90
4643;DHT22;2334;48.710;9.622;2022-09-02T04:10:27;12.10;99.90
4643;DHT22;2334;48.710;9.622;2022-09-02T04:12:54;12.10;99.90
4643;DHT22;2334;48.710;9.622;2022-09-02T04:15:23;12.00;99.90
4643;DHT22;2334;48.710;9.622;2022-09-02T04:21:14;12.00;99.90
4643;DHT22;2334;48.710;9.622;2022-09-02T04:23:41;11.90;99.90
4643;DHT22;2334;48.710;9.622;2022-09-02T04:26:11;11.90;99.90
4643;DHT22;2334;48.710;9.622;2022-09-02T04:28:39;11.80;99.90
4643;DHT22;2334;48.710;9.622;2022-09-02T04:31:10;11.80;99.90
4643;DHT22;2334;48.710;9.622;2022-09-02T04:33:37;11.80;99.90
4643;DHT22;2334;48.710;9.622;2022-09-02T04:36:05;11.70;99.90
4643;DHT22;2334;48.710;9.622;2022-09-02T04:38:33;11.70;99.90
4643;DHT22;2334;48.710;9.622;2022-09-02T04:41:05;11.70;99.90
4643;DHT22;2334;48.710;9.622;2022-09-02T04:43:32;11.60;99.90
4643;DHT22;2334;48.710;9.622;2022-09-02T04:46:02;11.50;99.90
4643;DHT22;2334;48.710;9.622;2022-09-02T04:48:30;11.60;99.90
4643;DHT22;2334;48.710;9.622;2022-09-02T04:51:01;11.60;99.90
4643;DHT22;2334;48.710;9.622;2022-09-02T04:53:28;11.50;99.90
4643;DHT22;2334;48.710;9.622;2022-09-02T04:55:55;11.50;99.90
4643;DHT22;2334;48.710;9.622;2022-09-02T04:58:22;11.60;99.90
4643;DHT22;2334;48.710;9.622;2022-09-02T05:00:49;11.60;99.90
4643;DHT22;2334;48.710;9.622;2022-09-02T05:03:16;11.60;99.90
4643;DHT22;2334;48.710;9.622;2022-09-02T05:05:46;11.60;99.90
4643;DHT22;2334;48.710;9.622;2022-09-02T05:08:13;11.70;99.90
4643;DHT22;2334;48.710;9.622;2022-09-02T05:10:41;11.70;99.90
4643;DHT22;2334;48.710;9.622;2022-09-02T05:13:08;11.70;99.90
4643;DHT22;2334;48.710;9.622;2022-09-02T05:15:39;11.70;99.90
4643;DHT22;2334;48.710;9.622;2022-09-02T05:18:07;11.80;99.90
4643;DHT22;2334;48.710;9.622;2022-09-02T05:20:37;11.80;99.90
4643;DHT22;2334;48.710;9.622;2022-09-02T05:23:05;11.90;99.90
4643;DHT22;2334;48.710;9.622;2022-09-02T05:25:33;11.90;99.90
4643;DHT22;2334;48.710;9.622;2022-09-02T05:28:00;12.00;99.90
4643;DHT22;2334;48.710;9.622;2022-09-02T05:30:26;12.00;99.90
4643;DHT22;2334;48.710;9.622;2022-09-02T05:32:53;12.10;99.90
4643;DHT22;2334;48.710;9.622;2022-09-02T05:35:20;12.10;99.90
4643;DHT22;2334;48.710;9.622;2022-09-02T05:37:47;12.20;99.90
4643;DHT22;2334;48.710;9.622;2022-09-02T05:40:15;12.20;99.90
4643;DHT22;2334;48.710;9.622;2022-09-02T05:42:42;12.30;99.90
4643;DHT22;2334;48.710;9.622;2022-09-02T05:45:10;12.40;99.90
4643;DHT22;2334;48.710;9.622;2022-09-02T05:47:37;12.40;99.90
4643;DHT22;2334;48.710;9.622;2022-09-02T05:50:05;12.50;99.90
4643;DHT22;2334;48.710;9.622;2022-09-02T05:52:32;12.60;99.90
4643;DHT22;2334;48.710;9.622;2022-09-02T05:54:59;12.70;99.90
4643;DHT22;2334;48.710;9.622;2022-09-02T05:57:29;12.80;99.90
4643;DHT22;2334;48.710;9.622;2022-09-02T05:59:56;12.90;99.90
4643;DHT22;2334;48.710;9.622;2022-09-02T06:02:24;13.00;99.90
4643;DHT22;2334;48.710;9.622;2022-09-02T06:04:52;13.10;99.90
4643;DHT22;2334;48.710;9.622;2022-09-02T06:07:22;13.20;99.90
4643;DHT22;2334;48.710;9.622;2022-09-02T06:09:49;13.30;99.90
4643;DHT22;2334;48.710;9.622;2022-09-02T06:12:18;13.40;99.90
4643;DHT22;2334;48.710;9.622;2022-09-02T06:14:47;13.60;99.90
4643;DHT22;2334;48.710;9.622;2022-09-02T06:17:14;13.70;99.90
4643;DHT22;2334;48.710;9.622;2022-09-02T06:19:41;13.80;99.90
4643;DHT22;2334;48.710;9.622;2022-09-02T06:22:09;14.00;99.90
4643;DHT22;2334;48.710;9.622;2022-09-02T06:24:35;14.10;99.90
4643;DHT22;2334;48.710;9.622;2022-09-02T06:27:03;14.30;99.90
4643;DHT22;2334;48.710;9.622;2022-09-02T06:29:31;14.50;99.90
4643;DHT22;2334;48.710;9.622;2022-09-02T06:32:01;14.60;99.90
4643;DHT22;2334;48.710;9.622;2022-09-02T06:34:28;14.90;99.90
4643;DHT22;2334;48.710;9.622;2022-09-02T06:36:55;15.10;99.90
4643;DHT22;2334;48.710;9.622;2022-09-02T06:39:23;15.30;99.90
4643;DHT22;2334;48.710;9.622;2022-09-02T06:41:50;15.60;99.90
4643;DHT22;2334;48.710;9.622;2022-09-02T06:44:18;15.80;99.90
4643;DHT22;2334;48.710;9.622;2022-09-02T06:46:51;15.80;99.90
4643;DHT22;2334;48.710;9.622;2022-09-02T06:49:20;16.00;99.90
4643;DHT22;2334;48.710;9.622;2022-09-02T06:51:49;16.10;99.90
4643;DHT22;2334;48.710;9.622;2022-09-02T06:54:18;16.30;99.90
4643;DHT22;2334;48.710;9.622;2022-09-02T06:56:46;16.40;99.90
4643;DHT22;2334;48.710;9.622;2022-09-02T06:59:13;16.40;99.90
4643;DHT22;2334;48.710;9.622;2022-09-02T07:01:40;16.50;99.90
4643;DHT22;2334;48.710;9.622;2022-09-02T07:04:07;16.60;99.90
4643;DHT22;2334;48.710;9.622;2022-09-02T07:06:54;16.70;99.90
4643;DHT22;2334;48.710;9.622;2022-09-02T07:09:23;16.80;99.90
4643;DHT22;2334;48.710;9.622;2022-09-02T07:11:56;16.90;99.90
4643;DHT22;2334;48.710;9.622;2022-09-02T07:14:23;17.00;99.90
4643;DHT22;2334;48.710;9.622;2022-09-02T07:16:52;17.10;99.90
4643;DHT22;2334;48.710;9.622;2022-09-02T07:19:20;17.30;99.90
4643;DHT22;2334;48.710;9.622;2022-09-02T07:21:48;17.40;99.90
4643;DHT22;2334;48.710;9.622;2022-09-02T07:24:17;17.60;99.90
4643;DHT22;2334;48.710;9.622;2022-09-02T07:26:44;17.80;99.90
4643;DHT22;2334;48.710;9.622;2022-09-02T07:29:11;17.80;99.90
4643;DHT22;2334;48.710;9.622;2022-09-02T07:31:40;17.90;99.90
4643;DHT22;2334;48.710;9.622;2022-09-02T07:34:08;18.10;99.90
4643;DHT22;2334;48.710;9.622;2022-09-02T07:36:35;18.30;99.90
4643;DHT22;2334;48.710;9.622;2022-09-02T07:39:03;18.40;99.90
4643;DHT22;2334;48.710;9.622;2022-09-02T07:41:33;18.50;99.90
4643;DHT22;2334;48.710;9.622;2022-09-02T07:44:00;18.70;99.90
4643;DHT22;2334;48.710;9.622;2022-09-02T07:46:27;18.80;99.90
4643;DHT22;2334;48.710;9.622;2022-09-02T07:48:56;18.90;99.90
4643;DHT22;2334;48.710;9.622;2022-09-02T07:51:23;18.90;99.90
4643;DHT22;2334;48.710;9.622;2022-09-02T07:53:51;18.90;99.90
4643;DHT22;2334;48.710;9.622;2022-09-02T07:56:18;18.80;99.90
4643;DHT22;2334;48.710;9.622;2022-09-02T07:58:46;19.00;99.90
4643;DHT22;2334;48.710;9.622;2022-09-02T08:01:15;19.20;99.90
4643;DHT22;2334;48.710;9.622;2022-09-02T08:03:43;19.40;99.90
4643;DHT22;2334;48.710;9.622;2022-09-02T08:06:10;19.50;99.90
4643;DHT22;2334;48.710;9.622;2022-09-02T08:08:38;19.60;99.90
4643;DHT22;2334;48.710;9.622;2022-09-02T08:11:05;19.80;99.90
4643;DHT22;2334;48.710;9.622;2022-09-02T08:13:33;20.10;99.90
4643;DHT22;2334;48.710;9.622;2022-09-02T08:16:01;20.10;99.90
4643;DHT22;2334;48.710;9.622;2022-09-02T08:18:28;19.90;99.90
4643;DHT22;2334;48.710;9.622;2022-09-02T08:20:55;20.30;99.90
4643;DHT22;2334;48.710;9.622;2022-09-02T08:23:22;20.30;99.90
4643;DHT22;2334;48.710;9.622;2022-09-02T08:25:49;20.30;99.90
4643;DHT22;2334;48.710;9.622;2022-09-02T08:28:16;20.30;99.90
4643;DHT22;2334;48.710;9.622;2022-09-02T08:30:43;20.50;99.90
4643;DHT22;2334;48.710;9.622;2022-09-02T08:33:12;20.30;99.90
4643;DHT22;2334;48.710;9.622;2022-09-02T08:35:39;20.40;99.90
4643;DHT22;2334;48.710;9.622;2022-09-02T08:38:06;20.40;99.90
4643;DHT22;2334;48.710;9.622;2022-09-02T08:40:36;20.50;99.90
4643;DHT22;2334;48.710;9.622;2022-09-02T08:43:12;20.60;99.90
4643;DHT22;2334;48.710;9.622;2022-09-02T08:45:42;20.90;99.90
4643;DHT22;2334;48.710;9.622;2022-09-02T08:48:15;21.00;99.90
4643;DHT22;2334;48.710;9.622;2022-09-02T08:50:46;20.80;99.90
4643;DHT22;2334;48.710;9.622;2022-09-02T08:53:16;21.10;99.90
4643;DHT22;2334;48.710;9.622;2022-09-02T08:55:52;21.50;99.90
4643;DHT22;2334;48.710;9.622;2022-09-02T08:58:23;21.70;99.90
4643;DHT22;2334;48.710;9.622;2022-09-02T09:00:56;22.00;99.90
4643;DHT22;2334;48.710;9.622;2022-09-02T09:03:32;22.20;99.90
4643;DHT22;2334;48.710;9.622;2022-09-02T09:06:07;22.10;99.90
4643;DHT22;2334;48.710;9.622;2022-09-02T09:08:42;22.40;99.90
4643;DHT22;2334;48.710;9.622;2022-09-02T09:11:15;22.40;99.90
4643;DHT22;2334;48.710;9.622;2022-09-02T09:16:40;22.40;99.90
4643;DHT22;2334;48.710;9.622;2022-09-02T09:19:13;22.20;99.90
4643;DHT22;2334;48.710;9.622;2022-09-02T09:21:41;22.30;99.90
4643;DHT22;2334;48.710;9.622;2022-09-02T09:24:20;22.30;99.90
4643;DHT22;2334;48.710;9.622;2022-09-02T09:26:51;22.50;99.90
4643;DHT22;2334;48.710;9.622;2022-09-02T09:29:18;22.90;99.90
4643;DHT22;2334;48.710;9.622;2022-09-02T09:31:52;23.10;99.90
4643;DHT22;2334;48.710;9.622;2022-09-02T09:34:21;23.20;99.90
4643;DHT22;2334;48.710;9.622;2022-09-02T09:36:51;22.90;99.90
4643;DHT22;2334;48.710;9.622;2022-09-02T09:39:23;23.00;99.90
4643;DHT22;2334;48.710;9.622;2022-09-02T09:41:52;22.90;99.90
4643;DHT22;2334;48.710;9.622;2022-09-02T09:44:43;22.90;99.90
4643;DHT22;2334;48.710;9.622;2022-09-02T09:47:14;22.90;99.90
4643;DHT22;2334;48.710;9.622;2022-09-02T09:49:45;23.00;99.90
4643;DHT22;2334;48.710;9.622;2022-09-02T09:52:21;23.30;99.90
4643;DHT22;2334;48.710;9.622;2022-09-02T09:55:15;23.50;99.90
4643;DHT22;2334;48.710;9.622;2022-09-02T09:57:43;23.60;99.90
4643;DHT22;2334;48.710;9.622;2022-09-02T10:00:27;23.10;99.90
4643;DHT22;2334;48.710;9.622;2022-09-02T10:02:59;23.00;99.90
4643;DHT22;2334;48.710;9.622;2022-09-02T10:05:33;23.10;99.90
4643;DHT22;2334;48.710;9.622;2022-09-02T10:08:02;23.30;99.90
4643;DHT22;2334;48.710;9.622;2022-09-02T10:10:31;23.60;99.90
4643;DHT22;2334;48.710;9.622;2022-09-02T10:13:15;23.70;99.90
4643;DHT22;2334;48.710;9.622;2022-09-02T10:15:53;23.80;99.90
4643;DHT22;2334;48.710;9.622;2022-09-02T10:18:29;23.50;99.90
4643;DHT22;2334;48.710;9.622;2022-09-02T10:21:04;23.50;99.90
4643;DHT22;2334;48.710;9.622;2022-09-02T10:23:42;23.70;99.90
4643;DHT22;2334;48.710;9.622;2022-09-02T10:26:19;24.00;99.90
4643;DHT22;2334;48.710;9.622;2022-09-02T10:32:14;24.00;99.90
4643;DHT22;2334;48.710;9.622;2022-09-02T10:34:49;24.10;99.90
4643;DHT22;2334;48.710;9.622;2022-09-02T10:37:25;24.20;99.90
4643;DHT22;2334;48.710;9.622;2022-09-02T10:40:12;24.10;99.90
4643;DHT22;2334;48.710;9.622;2022-09-02T10:42:49;24.40;99.90
4643;DHT22;2334;48.710;9.622;2022-09-02T10:45:23;24.40;99.90
4643;DHT22;2334;48.710;9.622;2022-09-02T10:48:10;24.60;99.90
4643;DHT22;2334;48.710;9.622;2022-09-02T10:50:42;24.20;99.90
4643;DHT22;2334;48.710;9.622;2022-09-02T10:53:37;24.30;99.90
4643;DHT22;2334;48.710;9.622;2022-09-02T10:56:10;24.40;99.90
4643;DHT22;2334;48.710;9.622;2022-09-02T10:58:44;24.50;99.90
4643;DHT22;2334;48.710;9.622;2022-09-02T11:01:18;24.60;99.90
4643;DHT22;2334;48.710;9.622;2022-09-02T11:03:55;24.30;99.90
4643;DHT22;2334;48.710;9.622;2022-09-02T11:06:26;24.50;99.90
4643;DHT22;2334;48.710;9.622;2022-09-02T11:08:57;24.70;99.90
4643;DHT22;2334;48.710;9.622;2022-09-02T11:11:30;24.90;99.90
4643;DHT22;2334;48.710;9.622;2022-09-02T11:14:04;25.20;99.90
4643;DHT22;2334;48.710;9.622;2022-09-02T11:16:38;25.30;99.90
4643;DHT22;2334;48.710;9.622;2022-09-02T11:19:13;24.80;99.90
4643;DHT22;2334;48.710;9.622;2022-09-02T11:21:49;25.10;99.90
4643;DHT22;2334;48.710;9.622;2022-09-02T11:24:25;25.20;99.90
4643;DHT22;2334;48.710;9.622;2022-09-02T11:26:59;25.10;99.90
4643;DHT22;2334;48.710;9.622;2022-09-02T11:29:35;25.40;99.90
4643;DHT22;2334;48.710;9.622;2022-09-02T11:32:09;25.70;99.90
4643;DHT22;2334;48.710;9.622;2022-09-02T11:34:42;25.50;99.90
4643;DHT22;2334;48.710;9.622;2022-09-02T11:37:22;25.00;99.90
4643;DHT22;2334;48.710;9.622;2022-09-02T11:39:55;25.30;99.90
4643;DHT22;2334;48.710;9.622;2022-09-02T11:45:42;25.30;99.90
4643;DHT22;2334;48.710;9.622;2022-09-02T11:48:46;25.40;99.90
4643;DHT22;2334;48.710;9.622;2022-09-02T11:54:13;25.80;99.90
4643;DHT22;2334;48.710;9.622;2022-09-02T11:56:45;25.90;99.60
4643;DHT22;2334;48.710;9.622;2022-09-02T11:59:19;25.80;99.90
4643;DHT22;2334;48.710;9.622;2022-09-02T12:01:49;26.20;99.90
4643;DHT22;2334;48.710;9.622;2022-09-02T12:04:20;26.20;99.90
4643;DHT22;2334;48.710;9.622;2022-09-02T12:07:23;25.70;99.80
4643;DHT22;2334;48.710;9.622;2022-09-02T12:09:51;25.40;99.90
4643;DHT22;2334;48.710;9.622;2022-09-02T12:15:26;26.00;99.90
4643;DHT22;2334;48.710;9.622;2022-09-02T12:18:12;26.30;99.90
4643;DHT22;2334;48.710;9.622;2022-09-02T12:21:13;25.90;99.90
4643;DHT22;2334;48.710;9.622;2022-09-02T12:24:14;26.30;99.90
4643;DHT22;2334;48.710;9.622;2022-09-02T12:27:10;25.60;99.90
4643;DHT22;2334;48.710;9.622;2022-09-02T12:29:44;26.10;99.90
4643;DHT22;2334;48.710;9.622;2022-09-02T12:38:26;25.60;99.90
4643;DHT22;2334;48.710;9.622;2022-09-02T12:40:57;25.90;99.90
4643;DHT22;2334;48.710;9.622;2022-09-02T12:43:28;26.40;99.90
4643;DHT22;2334;48.710;9.622;2022-09-02T12:46:05;26.70;99.50
4643;DHT22;2334;48.710;9.622;2022-09-02T12:48:39;26.70;99.00
4643;DHT22;2334;48.710;9.622;2022-09-02T12:51:50;26.70;99.10
4643;DHT22;2334;48.710;9.622;2022-09-02T12:54:18;26.80;98.70
4643;DHT22;2334;48.710;9.622;2022-09-02T12:56:51;26.60;98.50
4643;DHT22;2334;48.710;9.622;2022-09-02T12:59:25;26.50;98.90
4643;DHT22;2334;48.710;9.622;2022-09-02T13:02:08;25.60;99.20
4643;DHT22;2334;48.710;9.622;2022-09-02T13:04:45;25.60;99.30
4643;DHT22;2334;48.710;9.622;2022-09-02T13:11:17;26.10;99.20
4643;DHT22;2334;48.710;9.622;2022-09-02T13:14:16;26.60;98.40
4643;DHT22;2334;48.710;9.622;2022-09-02T13:17:03;26.00;98.60
4643;DHT22;2334;48.710;9.622;2022-09-02T13:20:05;26.30;98.80
4643;DHT22;2334;48.710;9.622;2022-09-02T13:22:52;26.30;98.80
4643;DHT22;2334;48.710;9.622;2022-09-02T13:31:43;26.50;98.10
4643;DHT22;2334;48.710;9.622;2022-09-02T13:34:44;26.50;97.80
4643;DHT22;2334;48.710;9.622;2022-09-02T13:37:27;26.10;98.50
4643;DHT22;2334;48.710;9.622;2022-09-02T13:39:54;26.40;98.30
4643;DHT22;2334;48.710;9.622;2022-09-02T13:42:23;26.30;98.20
4643;DHT22;2334;48.710;9.622;2022-09-02T13:45:07;26.30;98.00
4643;DHT22;2334;48.710;9.622;2022-09-02T13:47:34;26.30;97.70
4643;DHT22;2334;48.710;9.622;2022-09-02T13:50:04;26.20;97.40
4643;DHT22;2334;48.710;9.622;2022-09-02T13:52:40;26.10;97.90
4643;DHT22;2334;48.710;9.622;2022-09-02T13:55:11;25.90;97.30
4643;DHT22;2334;48.710;9.622;2022-09-02T13:57:43;25.80;97.60
4643;DHT22;2334;48.710;9.622;2022-09-02T14:00:15;25.50;97.70
4643;DHT22;2334;48.710;9.622;2022-09-02T14:03:00;25.60;97.40
4643;DHT22;2334;48.710;9.622;2022-09-02T14:05:28;25.90;97.30
4643;DHT22;2334;48.710;9.622;2022-09-02T14:07:58;26.10;97.30
4643;DHT22;2334;48.710;9.622;2022-09-02T14:10:28;26.00;97.10
4643;DHT22;2334;48.710;9.622;2022-09-02T14:12:57;25.80;97.10
4643;DHT22;2334;48.710;9.622;2022-09-02T14:15:27;26.10;97.30
4643;DHT22;2334;48.710;9.622;2022-09-02T14:18:14;26.30;97.30
4643;DHT22;2334;48.710;9.622;2022-09-02T14:20:57;26.30;96.50
4643;DHT22;2334;48.710;9.622;2022-09-02T14:23:26;26.60;96.90
4643;DHT22;2334;48.710;9.622;2022-09-02T14:25:55;25.80;96.30
4643;DHT22;2334;48.710;9.622;2022-09-02T14:28:24;25.80;96.90
4643;DHT22;2334;48.710;9.622;2022-09-02T14:31:01;25.90;97.20
4643;DHT22;2334;48.710;9.622;2022-09-02T14:33:40;26.50;96.90
4643;DHT22;2334;48.710;9.622;2022-09-02T14:36:11;26.80;96.10
4643;DHT22;2334;48.710;9.622;2022-09-02T14:38:49;27.00;95.70
4643;DHT22;2334;48.710;9.622;2022-09-02T14:41:21;27.00;95.30
4643;DHT22;2334;48.710;9.622;2022-09-02T14:43:50;26.80;95.50
4643;DHT22;2334;48.710;9.622;2022-09-02T14:46:36;27.00;95.70
4643;DHT22;2334;48.710;9.622;2022-09-02T14:49:06;27.30;95.70
4643;DHT22;2334;48.710;9.622;2022-09-02T14:51:37;27.40;95.40
4643;DHT22;2334;48.710;9.622;2022-09-02T14:54:05;27.70;95.10
4643;DHT22;2334;48.710;9.622;2022-09-02T14:56:46;27.60;94.20
4643;DHT22;2334;48.710;9.622;2022-09-02T14:59:15;27.40;94.40
4643;DHT22;2334;48.710;9.622;2022-09-02T15:01:45;27.50;94.10
4643;DHT22;2334;48.710;9.622;2022-09-02T15:04:12;27.80;94.20
4643;DHT22;2334;48.710;9.622;2022-09-02T15:06:39;27.80;94.10
4643;DHT22;2334;48.710;9.622;2022-09-02T15:09:07;28.00;93.90
4643;DHT22;2334;48.710;9.622;2022-09-02T15:11:34;27.90;93.80
4643;DHT22;2334;48.710;9.622;2022-09-02T15:14:02;27.40;94.20
4643;DHT22;2334;48.710;9.622;2022-09-02T15:16:29;27.90;94.00
4643;DHT22;2334;48.710;9.622;2022-09-02T15:18:58;27.40;93.80
4643;DHT22;2334;48.710;9.622;2022-09-02T15:21:25;27.50;94.00
4643;DHT22;2334;48.710;9.622;2022-09-02T15:23:52;27.80;93.80
4643;DHT22;2334;48.710;9.622;2022-09-02T15:26:19;28.00;94.20
4643;DHT22;2334;48.710;9.622;2022-09-02T15:28:46;28.00;94.10
4643;DHT22;2334;48.710;9.622;2022-09-02T15:31:13;28.20;93.10
4643;DHT22;2334;48.710;9.622;2022-09-02T15:33:40;28.30;92.70
4643;DHT22;2334;48.710;9.622;2022-09-02T15:36:11;28.30;92.60
4643;DHT22;2334;48.710;9.622;2022-09-02T15:38:39;28.10;92.40
4643;DHT22;2334;48.710;9.622;2022-09-02T15:41:14;28.50;92.60
4643;DHT22;2334;48.710;9.622;2022-09-02T15:43:41;28.30;92.20
4643;DHT22;2334;48.710;9.622;2022-09-02T15:46:17;28.60;92.00
4643;DHT22;2334;48.710;9.622;2022-09-02T15:48:44;28.60;91.70
4643;DHT22;2334;48.710;9.622;2022-09-02T15:51:14;28.60;91.60
4643;DHT22;2334;48.710;9.622;2022-09-02T15:53:41;28.60;91.70
4643;DHT22;2334;48.710;9.622;2022-09-02T15:56:15;28.70;91.20
4643;DHT22;2334;48.710;9.622;2022-09-02T15:58:42;28.40;91.30
4643;DHT22;2334;48.710;9.622;2022-09-02T16:01:09;28.20;91.90
4643;DHT22;2334;48.710;9.622;2022-09-02T16:03:36;28.00;91.80
4643;DHT22;2334;48.710;9.622;2022-09-02T16:06:04;27.20;92.40
4643;DHT22;2334;48.710;9.622;2022-09-02T16:08:34;27.20;92.60
4643;DHT22;2334;48.710;9.622;2022-09-02T16:11:06;27.00;92.60
4643;DHT22;2334;48.710;9.622;2022-09-02T16:13:33;26.70;92.80
4643;DHT22;2334;48.710;9.622;2022-09-02T16:16:02;26.70;92.80
4643;DHT22;2334;48.710;9.622;2022-09-02T16:18:30;26.50;93.20
4643;DHT22;2334;48.710;9.622;2022-09-02T16:20:59;26.70;93.30
4643;DHT22;2334;48.710;9.622;2022-09-02T16:23:28;26.30;93.30
4643;DHT22;2334;48.710;9.622;2022-09-02T16:26:09;26.60;93.20
4643;DHT22;2334;48.710;9.622;2022-09-02T16:28:38;26.70;92.90
4643;DHT22;2334;48.710;9.622;2022-09-02T16:31:06;27.20;92.60
4643;DHT22;2334;48.710;9.622;2022-09-02T16:33:33;27.50;92.80
4643;DHT22;2334;48.710;9.622;2022-09-02T16:36:01;27.30;92.50
4643;DHT22;2334;48.710;9.622;2022-09-02T16:38:28;26.90;92.50
4643;DHT22;2334;48.710;9.622;2022-09-02T16:40:56;26.30;93.00
4643;DHT22;2334;48.710;9.622;2022-09-02T16:43:25;26.10;93.40
4643;DHT22;2334;48.710;9.622;2022-09-02T16:45:52;25.60;93.60
4643;DHT22;2334;48.710;9.622;2022-09-02T16:48:21;25.30;93.70
4643;DHT22;2334;48.710;9.622;2022-09-02T16:50:48;25.00;94.00
4643;DHT22;2334;48.710;9.622;2022-09-02T16:53:16;24.80;94.10
4643;DHT22;2334;48.710;9.622;2022-09-02T16:55:44;24.60;94.50
4643;DHT22;2334;48.710;9.622;2022-09-02T16:58:12;24.30;94.80
4643;DHT22;2334;48.710;9.622;2022-09-02T17:00:41;24.10;95.30